createdAt,value
2022-08-16T00:00:03.268Z,97487.00
2022-08-16T00:00:03.479Z,97489.00
2022-08-16T00:00:06.391Z,97487.00
2022-08-16T00:00:22.158Z,97487.00
2022-08-16T00:00:27.724Z,97487.00
2022-08-16T00:00:39.267Z,97487.00
2022-08-16T00:00:47.676Z,97485.00
2022-08-16T00:00:57.293Z,97489.00
2022-08-16T00:01:07.394Z,97489.00
2022-08-16T00:01:19.324Z,97485.00
2022-08-16T00:01:34.241Z,97485.00
2022-08-16T00:01:40.839Z,97489.00
2022-08-16T00:01:50.941Z,97487.00
2022-08-16T00:02:00.886Z,97489.00
2022-08-16T00:02:12.902Z,97489.00
2022-08-16T00:02:18.985Z,97489.00
2022-08-16T00:02:28.965Z,97487.00
2022-08-16T00:02:40.927Z,97489.00
2022-08-16T00:02:49.186Z,97487.00
2022-08-16T00:03:00.975Z,97489.00
2022-08-16T00:03:13.435Z,97487.00
2022-08-16T00:03:20.054Z,97487.00
2022-08-16T00:03:29.500Z,97487.00
2022-08-16T00:03:41.316Z,97487.00
2022-08-16T00:03:50.518Z,97487.00
2022-08-16T00:04:01.496Z,97489.00
2022-08-16T00:04:10.359Z,97487.00
2022-08-16T00:04:21.824Z,97489.00
2022-08-16T00:04:31.816Z,97490.00
2022-08-16T00:04:41.806Z,97487.00
2022-08-16T00:04:51.155Z,97489.00
2022-08-16T00:05:02.057Z,97489.00
2022-08-16T00:05:09.915Z,97487.00
2022-08-16T00:05:19.926Z,97489.00
2022-08-16T00:05:34.984Z,97492.00
2022-08-16T00:05:48.379Z,97490.00
2022-08-16T00:05:49.927Z,97490.00
2022-08-16T00:06:00.955Z,97489.00
2022-08-16T00:06:10.528Z,97487.00
2022-08-16T00:06:22.490Z,97485.00
2022-08-16T00:06:32.310Z,97487.00
2022-08-16T00:06:40.498Z,97485.00
2022-08-16T00:06:52.446Z,97490.00
2022-08-16T00:07:02.444Z,97492.00
2022-08-16T00:07:12.648Z,97487.00
2022-08-16T00:07:22.576Z,97487.00
2022-08-16T00:07:32.595Z,97487.00
2022-08-16T00:07:42.584Z,97489.00
2022-08-16T00:07:56.516Z,97487.00
2022-08-16T00:08:01.756Z,97489.00
2022-08-16T00:08:11.741Z,97489.00
2022-08-16T00:08:35.836Z,97487.00
2022-08-16T00:08:36.707Z,97487.00
2022-08-16T00:08:45.919Z,97487.00
2022-08-16T00:08:52.374Z,97487.00
2022-08-16T00:09:04.047Z,97487.00
2022-08-16T00:09:14.272Z,97487.00
2022-08-16T00:09:22.498Z,97490.00
2022-08-16T00:09:32.507Z,97485.00
2022-08-16T00:09:42.468Z,97487.00
2022-08-16T00:09:54.433Z,97485.00
2022-08-16T00:10:02.698Z,97487.00
2022-08-16T00:10:20.713Z,97487.00
2022-08-16T00:10:24.019Z,97485.00
2022-08-16T00:10:34.006Z,97487.00
2022-08-16T00:10:45.949Z,97485.00
2022-08-16T00:10:55.937Z,97485.00
2022-08-16T00:11:05.956Z,97483.00
2022-08-16T00:11:16.566Z,97485.00
2022-08-16T00:11:23.977Z,97483.00
2022-08-16T00:11:33.997Z,97483.00
2022-08-16T00:11:46.044Z,97489.00
2022-08-16T00:11:55.512Z,97483.00
2022-08-16T00:12:03.988Z,97485.00
2022-08-16T00:12:17.764Z,97485.00
2022-08-16T00:12:26.657Z,97481.00
2022-08-16T00:12:33.968Z,97483.00
2022-08-16T00:12:44.011Z,97487.00
2022-08-16T00:12:54.775Z,97485.00
2022-08-16T00:13:04.037Z,97483.00
2022-08-16T00:13:15.439Z,97483.00
2022-08-16T00:13:23.989Z,97485.00
2022-08-16T00:13:41.399Z,97483.00
2022-08-16T00:13:54.293Z,97483.00
2022-08-16T00:13:56.120Z,97485.00
2022-08-16T00:14:08.512Z,97485.00
2022-08-16T00:14:18.069Z,97483.00
2022-08-16T00:14:29.260Z,97483.00
2022-08-16T00:14:36.148Z,97490.00
2022-08-16T00:14:46.365Z,97487.00
2022-08-16T00:14:56.867Z,97487.00
2022-08-16T00:15:11.766Z,97485.00
2022-08-16T00:15:18.619Z,97487.00
2022-08-16T00:15:51.561Z,97487.00
2022-08-16T00:15:51.626Z,97487.00
2022-08-16T00:15:51.870Z,97485.00
2022-08-16T00:16:01.818Z,97485.00
2022-08-16T00:17:01.176Z,97487.00
2022-08-16T00:17:01.703Z,97487.00
2022-08-16T00:17:05.331Z,97485.00
2022-08-16T00:17:05.551Z,97485.00
2022-08-16T00:17:05.594Z,97487.00
2022-08-16T00:17:18.436Z,97487.00
2022-08-16T00:17:19.444Z,97487.00
2022-08-16T00:17:28.208Z,97485.00
2022-08-16T00:17:56.387Z,97487.00
2022-08-16T00:17:56.526Z,97485.00
2022-08-16T00:18:00.801Z,97489.00
2022-08-16T00:18:09.799Z,97485.00
2022-08-16T00:18:22.080Z,97489.00
2022-08-16T00:18:32.181Z,97489.00
2022-08-16T00:18:43.310Z,97489.00
2022-08-16T00:18:51.339Z,97485.00
2022-08-16T00:19:01.371Z,97489.00
2022-08-16T00:19:13.711Z,97487.00
2022-08-16T00:19:22.473Z,97487.00
2022-08-16T00:19:41.161Z,97485.00
2022-08-16T00:19:43.850Z,97490.00
2022-08-16T00:19:53.880Z,97485.00
2022-08-16T00:20:02.879Z,97485.00
2022-08-16T00:20:12.901Z,97485.00
2022-08-16T00:20:24.841Z,97487.00
2022-08-16T00:20:32.870Z,97487.00
2022-08-16T00:20:44.867Z,97487.00
2022-08-16T00:20:54.404Z,97487.00
2022-08-16T00:21:04.821Z,97487.00
2022-08-16T00:21:14.833Z,97487.00
2022-08-16T00:21:22.913Z,97487.00
2022-08-16T00:21:33.471Z,97483.00
2022-08-16T00:21:44.813Z,97485.00
2022-08-16T00:21:56.080Z,97483.00
2022-08-16T00:22:12.762Z,97485.00
2022-08-16T00:22:15.383Z,97485.00
2022-08-16T00:22:24.631Z,97485.00
2022-08-16T00:22:33.771Z,97487.00
2022-08-16T00:22:43.761Z,97487.00
2022-08-16T00:22:53.761Z,97487.00
2022-08-16T00:23:03.771Z,97485.00
2022-08-16T00:23:13.770Z,97483.00
2022-08-16T00:23:24.475Z,97485.00
2022-08-16T00:23:34.789Z,97487.00
2022-08-16T00:23:46.250Z,97487.00
2022-08-16T00:23:55.723Z,97483.00
2022-08-16T00:24:04.661Z,97485.00
2022-08-16T00:24:30.919Z,97485.00
2022-08-16T00:24:31.150Z,97485.00
2022-08-16T00:24:37.841Z,97489.00
2022-08-16T00:24:47.144Z,97485.00
2022-08-16T00:24:56.848Z,97485.00
2022-08-16T00:25:06.856Z,97485.00
2022-08-16T00:25:16.862Z,97483.00
2022-08-16T00:26:13.594Z,97485.00
2022-08-16T00:26:33.775Z,97487.00
2022-08-16T00:26:34.629Z,97485.00
2022-08-16T00:26:34.927Z,97487.00
2022-08-16T00:26:35.066Z,97489.00
2022-08-16T00:26:35.391Z,97487.00
2022-08-16T00:26:35.846Z,97487.00
2022-08-16T00:26:44.969Z,97487.00
2022-08-16T00:26:50.943Z,97487.00
2022-08-16T00:26:59.479Z,97489.00
2022-08-16T00:27:11.442Z,97487.00
2022-08-16T00:27:21.423Z,97487.00
2022-08-16T00:27:31.016Z,97489.00
2022-08-16T00:27:39.724Z,97485.00
2022-08-16T00:27:51.412Z,97487.00
2022-08-16T00:28:01.441Z,97487.00
2022-08-16T00:28:09.560Z,97487.00
2022-08-16T00:28:21.413Z,97489.00
2022-08-16T00:28:31.423Z,97487.00
2022-08-16T00:28:41.423Z,97487.00
2022-08-16T00:28:54.935Z,97489.00
2022-08-16T00:29:02.736Z,97489.00
2022-08-16T00:29:10.772Z,97490.00
2022-08-16T00:29:22.744Z,97485.00
2022-08-16T00:29:30.763Z,97489.00
2022-08-16T00:29:40.771Z,97489.00
2022-08-16T00:30:08.410Z,97489.00
2022-08-16T00:30:19.213Z,97487.00
2022-08-16T00:30:19.612Z,97485.00
2022-08-16T00:30:28.930Z,97485.00
2022-08-16T00:30:34.214Z,97489.00
2022-08-16T00:30:46.168Z,97485.00
2022-08-16T00:30:54.205Z,97487.00
2022-08-16T00:31:04.225Z,97485.00
2022-08-16T00:31:16.164Z,97487.00
2022-08-16T00:31:27.704Z,97489.00
2022-08-16T00:31:58.943Z,97487.00
2022-08-16T00:32:01.212Z,97487.00
2022-08-16T00:32:05.409Z,97487.00
2022-08-16T00:32:08.905Z,97487.00
2022-08-16T00:32:18.856Z,97485.00
2022-08-16T00:32:33.009Z,97485.00
2022-08-16T00:32:40.805Z,97485.00
2022-08-16T00:32:49.035Z,97485.00
2022-08-16T00:32:58.876Z,97489.00
2022-08-16T00:33:09.791Z,97485.00
2022-08-16T00:33:18.879Z,97487.00
2022-08-16T00:33:30.841Z,97487.00
2022-08-16T00:33:38.855Z,97487.00
2022-08-16T00:33:49.990Z,97489.00
2022-08-16T00:34:00.804Z,97487.00
2022-08-16T00:34:18.387Z,97487.00
2022-08-16T00:34:20.778Z,97487.00
2022-08-16T00:34:44.607Z,97487.00
2022-08-16T00:34:44.700Z,97487.00
2022-08-16T00:34:53.106Z,97489.00
2022-08-16T00:35:02.825Z,97489.00
2022-08-16T00:35:15.453Z,97490.00
2022-08-16T00:35:24.361Z,97487.00
2022-08-16T00:35:32.415Z,97489.00
2022-08-16T00:35:44.626Z,97489.00
2022-08-16T00:35:54.206Z,97492.00
2022-08-16T00:36:06.236Z,97487.00
2022-08-16T00:36:15.655Z,97490.00
2022-08-16T00:36:26.163Z,97487.00
2022-08-16T00:36:35.063Z,97487.00
2022-08-16T00:36:47.290Z,97489.00
2022-08-16T00:36:56.160Z,97489.00
2022-08-16T00:37:04.206Z,97490.00
2022-08-16T00:37:17.082Z,97489.00
2022-08-16T00:37:56.699Z,97487.00
2022-08-16T00:37:57.311Z,97490.00
2022-08-16T00:37:57.623Z,97485.00
2022-08-16T00:37:59.570Z,97490.00
2022-08-16T00:38:40.058Z,97487.00
2022-08-16T00:38:41.297Z,97492.00
2022-08-16T00:38:41.459Z,97487.00
2022-08-16T00:38:43.618Z,97485.00
2022-08-16T00:38:49.057Z,97490.00
2022-08-16T00:39:01.169Z,97490.00
2022-08-16T00:39:09.525Z,97489.00
2022-08-16T00:39:19.930Z,97494.00
2022-08-16T00:39:29.156Z,97489.00
2022-08-16T00:39:41.109Z,97489.00
2022-08-16T00:39:57.785Z,97492.00
2022-08-16T00:40:01.704Z,97492.00
2022-08-16T00:40:33.420Z,97490.00
2022-08-16T00:40:34.179Z,97492.00
2022-08-16T00:40:34.909Z,97490.00
2022-08-16T00:40:43.581Z,97492.00
2022-08-16T00:40:53.644Z,97490.00
2022-08-16T00:41:01.314Z,97494.00
2022-08-16T00:41:13.278Z,97492.00
2022-08-16T00:41:23.262Z,97492.00
2022-08-16T00:41:31.297Z,97490.00
2022-08-16T00:41:42.257Z,97492.00
2022-08-16T00:41:51.338Z,97492.00
2022-08-16T00:42:03.289Z,97490.00
2022-08-16T00:42:13.288Z,97494.00
2022-08-16T00:42:30.381Z,97492.00
2022-08-16T00:42:33.718Z,97490.00
2022-08-16T00:42:44.858Z,97490.00
2022-08-16T00:42:55.150Z,97490.00
2022-08-16T00:43:02.867Z,97494.00
2022-08-16T00:43:19.108Z,97496.00
2022-08-16T00:43:23.644Z,97490.00
2022-08-16T00:43:40.866Z,97492.00
2022-08-16T00:43:43.849Z,97494.00
2022-08-16T00:43:54.808Z,97494.00
2022-08-16T00:44:02.989Z,97494.00
2022-08-16T00:44:15.036Z,97496.00
2022-08-16T00:44:32.901Z,97496.00
2022-08-16T00:44:35.859Z,97492.00
2022-08-16T00:44:46.348Z,97496.00
2022-08-16T00:44:55.873Z,97494.00
2022-08-16T00:45:08.320Z,97494.00
2022-08-16T00:45:16.337Z,97492.00
2022-08-16T00:45:25.067Z,97494.00
2022-08-16T00:45:35.479Z,97496.00
2022-08-16T00:45:57.936Z,97496.00
2022-08-16T00:46:00.156Z,97490.00
2022-08-16T00:46:22.390Z,97492.00
2022-08-16T00:46:32.890Z,97494.00
2022-08-16T00:46:34.797Z,97494.00
2022-08-16T00:46:35.978Z,97494.00
2022-08-16T00:46:52.920Z,97494.00
2022-08-16T00:47:05.948Z,97494.00
2022-08-16T00:47:08.408Z,97494.00
2022-08-16T00:47:17.920Z,97494.00
2022-08-16T00:47:30.053Z,97498.00
2022-08-16T00:47:37.929Z,97496.00
2022-08-16T00:47:49.458Z,97494.00
2022-08-16T00:47:57.949Z,97500.00
2022-08-16T00:48:30.308Z,97494.00
2022-08-16T00:48:30.506Z,97496.00
2022-08-16T00:48:31.168Z,97498.00
2022-08-16T00:48:44.299Z,97496.00
2022-08-16T00:48:48.991Z,97498.00
2022-08-16T00:48:58.008Z,97500.00
2022-08-16T00:49:17.304Z,97500.00
2022-08-16T00:49:19.677Z,97498.00
2022-08-16T00:49:27.596Z,97500.00
2022-08-16T00:49:39.686Z,97498.00
2022-08-16T00:49:56.725Z,97496.00
2022-08-16T00:49:59.150Z,97498.00
2022-08-16T00:50:11.437Z,97500.00
2022-08-16T00:50:21.095Z,97496.00
2022-08-16T00:50:36.528Z,97500.00
2022-08-16T00:50:40.850Z,97496.00
2022-08-16T00:50:55.249Z,97502.00
2022-08-16T00:51:02.663Z,97502.00
2022-08-16T00:51:10.692Z,97500.00
2022-08-16T00:51:21.330Z,97502.00
2022-08-16T00:51:32.651Z,97498.00
2022-08-16T00:51:42.653Z,97502.00
2022-08-16T00:51:55.160Z,97502.00
2022-08-16T00:52:00.678Z,97502.00
2022-08-16T00:52:29.499Z,97500.00
2022-08-16T00:52:30.235Z,97500.00
2022-08-16T00:52:30.978Z,97502.00
2022-08-16T00:52:45.811Z,97500.00
2022-08-16T00:52:53.605Z,97502.00
2022-08-16T00:53:01.107Z,97500.00
2022-08-16T00:53:13.001Z,97500.00
2022-08-16T00:53:22.037Z,97502.00
2022-08-16T00:53:31.108Z,97500.00
2022-08-16T00:53:41.224Z,97500.00
2022-08-16T00:53:52.991Z,97498.00
2022-08-16T00:54:01.878Z,97500.00
2022-08-16T00:54:12.992Z,97502.00
2022-08-16T00:54:21.652Z,97498.00
2022-08-16T00:54:33.074Z,97498.00
2022-08-16T00:54:41.041Z,97502.00
2022-08-16T00:54:51.061Z,97502.00
2022-08-16T00:55:01.294Z,97502.00
2022-08-16T00:55:12.962Z,97504.00
2022-08-16T00:55:22.971Z,97500.00
2022-08-16T00:55:37.687Z,97502.00
2022-08-16T00:55:44.703Z,97506.00
2022-08-16T00:55:52.741Z,97502.00
2022-08-16T00:56:05.251Z,97504.00
2022-08-16T00:56:56.980Z,97504.00
2022-08-16T00:56:57.474Z,97506.00
2022-08-16T00:56:57.553Z,97504.00
2022-08-16T00:56:57.948Z,97502.00
2022-08-16T00:56:59.606Z,97502.00
2022-08-16T00:57:06.792Z,97506.00
2022-08-16T00:57:16.285Z,97500.00
2022-08-16T00:57:26.425Z,97500.00
2022-08-16T00:57:58.991Z,97504.00
2022-08-16T00:57:59.584Z,97504.00
2022-08-16T00:58:00.797Z,97502.00
2022-08-16T00:58:13.168Z,97504.00
2022-08-16T00:58:34.598Z,97502.00
2022-08-16T00:58:34.887Z,97502.00
2022-08-16T00:58:41.373Z,97502.00
2022-08-16T00:58:51.348Z,97502.00
2022-08-16T00:59:01.538Z,97502.00
2022-08-16T00:59:11.314Z,97500.00
2022-08-16T00:59:19.969Z,97496.00
2022-08-16T00:59:34.225Z,97498.00
2022-08-16T00:59:54.691Z,97500.00
2022-08-16T00:59:58.986Z,97496.00
2022-08-16T01:00:01.250Z,97496.00
2022-08-16T01:00:12.953Z,97494.00
2022-08-16T01:00:23.833Z,97496.00
2022-08-16T01:00:32.547Z,97494.00
2022-08-16T01:00:44.540Z,97494.00
2022-08-16T01:00:54.604Z,97496.00
2022-08-16T01:01:08.264Z,97492.00
2022-08-16T01:01:15.579Z,97494.00
2022-08-16T01:01:24.146Z,97492.00
2022-08-16T01:01:36.029Z,97492.00
2022-08-16T01:01:46.037Z,97490.00
2022-08-16T01:01:54.104Z,97492.00
2022-08-16T01:02:30.868Z,97490.00
2022-08-16T01:02:31.182Z,97494.00
2022-08-16T01:02:31.740Z,97496.00
2022-08-16T01:02:34.557Z,97490.00
2022-08-16T01:02:48.725Z,97492.00
2022-08-16T01:02:54.487Z,97494.00
2022-08-16T01:03:04.667Z,97492.00
2022-08-16T01:03:14.693Z,97490.00
2022-08-16T01:03:30.105Z,97492.00
2022-08-16T01:03:35.977Z,97494.00
2022-08-16T01:03:44.698Z,97492.00
2022-08-16T01:03:54.503Z,97492.00
2022-08-16T01:04:05.436Z,97492.00
2022-08-16T01:04:29.893Z,97494.00
2022-08-16T01:04:30.149Z,97492.00
2022-08-16T01:04:37.012Z,97492.00
2022-08-16T01:05:04.631Z,97490.00
2022-08-16T01:05:10.454Z,97492.00
2022-08-16T01:05:11.241Z,97490.00
2022-08-16T01:05:16.442Z,97490.00
2022-08-16T01:05:28.398Z,97492.00
2022-08-16T01:05:36.428Z,97492.00
2022-08-16T01:05:46.449Z,97492.00
2022-08-16T01:05:58.402Z,97492.00
2022-08-16T01:06:32.761Z,97490.00
2022-08-16T01:06:40.038Z,97490.00
2022-08-16T01:06:40.296Z,97492.00
2022-08-16T01:06:48.857Z,97489.00
2022-08-16T01:07:00.944Z,97490.00
2022-08-16T01:07:02.100Z,97487.00
2022-08-16T01:07:10.418Z,97490.00
2022-08-16T01:07:20.019Z,97489.00
2022-08-16T01:07:50.500Z,97490.00
2022-08-16T01:07:51.389Z,97489.00
2022-08-16T01:07:53.317Z,97490.00
2022-08-16T01:08:19.589Z,97489.00
2022-08-16T01:08:36.071Z,97489.00
2022-08-16T01:08:36.483Z,97489.00
2022-08-16T01:08:36.742Z,97489.00
2022-08-16T01:09:01.094Z,97490.00
2022-08-16T01:09:13.106Z,97490.00
2022-08-16T01:09:21.972Z,97489.00
2022-08-16T01:09:33.242Z,97489.00
2022-08-16T01:09:43.190Z,97490.00
2022-08-16T01:09:51.452Z,97489.00
2022-08-16T01:10:02.003Z,97489.00
2022-08-16T01:10:16.145Z,97490.00
2022-08-16T01:10:22.017Z,97490.00
2022-08-16T01:10:33.352Z,97492.00
2022-08-16T01:10:43.557Z,97490.00
2022-08-16T01:10:53.067Z,97492.00
2022-08-16T01:11:03.557Z,97492.00
2022-08-16T01:11:13.537Z,97489.00
2022-08-16T01:11:23.542Z,97490.00
2022-08-16T01:11:33.646Z,97492.00
2022-08-16T01:11:53.845Z,97490.00
2022-08-16T01:11:56.761Z,97490.00
2022-08-16T01:12:03.289Z,97487.00
2022-08-16T01:12:26.500Z,97490.00
2022-08-16T01:12:26.590Z,97490.00
2022-08-16T01:12:34.166Z,97490.00
2022-08-16T01:12:45.699Z,97492.00
2022-08-16T01:12:53.733Z,97492.00
2022-08-16T01:13:05.815Z,97490.00
2022-08-16T01:13:15.155Z,97492.00
2022-08-16T01:13:26.751Z,97494.00
2022-08-16T01:13:35.786Z,97490.00
2022-08-16T01:13:45.790Z,97492.00
2022-08-16T01:13:55.788Z,97490.00
2022-08-16T01:14:05.787Z,97489.00
2022-08-16T01:14:15.792Z,97494.00
2022-08-16T01:14:30.048Z,97490.00
2022-08-16T01:14:35.036Z,97489.00
2022-08-16T01:14:47.224Z,97492.00
2022-08-16T01:14:55.200Z,97492.00
2022-08-16T01:15:07.106Z,97494.00
2022-08-16T01:15:17.171Z,97492.00
2022-08-16T01:15:26.197Z,97492.00
2022-08-16T01:15:35.242Z,97492.00
2022-08-16T01:15:45.230Z,97492.00
2022-08-16T01:15:57.187Z,97492.00
2022-08-16T01:16:10.325Z,97489.00
2022-08-16T01:16:20.058Z,97490.00
2022-08-16T01:16:28.343Z,97490.00
2022-08-16T01:16:37.209Z,97489.00
2022-08-16T01:16:46.738Z,97492.00
2022-08-16T01:16:57.197Z,97492.00
2022-08-16T01:17:08.280Z,97490.00
2022-08-16T01:17:15.278Z,97490.00
2022-08-16T01:17:27.198Z,97490.00
2022-08-16T01:17:37.520Z,97490.00
2022-08-16T01:17:45.297Z,97490.00
2022-08-16T01:17:56.361Z,97489.00
2022-08-16T01:18:07.248Z,97490.00
2022-08-16T01:18:39.104Z,97489.00
2022-08-16T01:18:40.114Z,97487.00
2022-08-16T01:18:40.332Z,97487.00
2022-08-16T01:18:48.797Z,97487.00
2022-08-16T01:18:56.859Z,97490.00
2022-08-16T01:19:08.818Z,97490.00
2022-08-16T01:19:18.318Z,97489.00
2022-08-16T01:19:26.887Z,97490.00
2022-08-16T01:19:40.958Z,97489.00
2022-08-16T01:19:47.222Z,97490.00
2022-08-16T01:19:57.356Z,97487.00
2022-08-16T01:20:23.416Z,97489.00
2022-08-16T01:20:24.041Z,97487.00
2022-08-16T01:20:31.509Z,97487.00
2022-08-16T01:20:41.670Z,97487.00
2022-08-16T01:20:51.470Z,97487.00
2022-08-16T01:20:59.580Z,97489.00
2022-08-16T01:21:09.532Z,97487.00
2022-08-16T01:21:22.326Z,97485.00
2022-08-16T01:21:33.253Z,97489.00
2022-08-16T01:21:39.935Z,97487.00
2022-08-16T01:21:49.523Z,97485.00
2022-08-16T01:22:47.408Z,97487.00
2022-08-16T01:22:47.892Z,97483.00
2022-08-16T01:22:49.428Z,97485.00
2022-08-16T01:22:49.756Z,97485.00
2022-08-16T01:22:55.905Z,97483.00
2022-08-16T01:22:58.895Z,97485.00
2022-08-16T01:23:08.835Z,97487.00
2022-08-16T01:23:14.143Z,97483.00
2022-08-16T01:23:24.151Z,97489.00
2022-08-16T01:23:58.529Z,97485.00
2022-08-16T01:24:01.006Z,97489.00
2022-08-16T01:24:01.137Z,97485.00
2022-08-16T01:24:44.370Z,97481.00
2022-08-16T01:24:52.223Z,97481.00
2022-08-16T01:24:52.646Z,97483.00
2022-08-16T01:24:52.760Z,97481.00
2022-08-16T01:24:53.938Z,97481.00
2022-08-16T01:25:00.404Z,97483.00
2022-08-16T01:25:10.731Z,97485.00
2022-08-16T01:25:21.534Z,97483.00
2022-08-16T01:25:34.171Z,97483.00
2022-08-16T01:25:41.621Z,97479.00
2022-08-16T01:25:59.819Z,97481.00
2022-08-16T01:26:34.243Z,97485.00
2022-08-16T01:26:34.261Z,97481.00
2022-08-16T01:26:34.658Z,97481.00
2022-08-16T01:26:35.595Z,97481.00
2022-08-16T01:26:43.834Z,97485.00
2022-08-16T01:26:51.871Z,97485.00
2022-08-16T01:27:03.859Z,97485.00
2022-08-16T01:27:15.154Z,97483.00
2022-08-16T01:27:23.832Z,97485.00
2022-08-16T01:27:34.696Z,97483.00
2022-08-16T01:27:41.862Z,97483.00
2022-08-16T01:27:53.830Z,97485.00
2022-08-16T01:28:02.052Z,97485.00
2022-08-16T01:28:19.765Z,97485.00
2022-08-16T01:28:24.443Z,97483.00
2022-08-16T01:28:38.774Z,97481.00
2022-08-16T01:28:45.600Z,97481.00
2022-08-16T01:28:55.124Z,97487.00
2022-08-16T01:29:05.392Z,97485.00
2022-08-16T01:29:17.021Z,97481.00
2022-08-16T01:29:41.708Z,97485.00
2022-08-16T01:29:57.562Z,97483.00
2022-08-16T01:29:57.947Z,97483.00
2022-08-16T01:29:59.672Z,97483.00
2022-08-16T01:30:20.403Z,97481.00
2022-08-16T01:30:21.890Z,97483.00
2022-08-16T01:30:30.905Z,97483.00
2022-08-16T01:30:49.657Z,97483.00
2022-08-16T01:30:53.585Z,97481.00
2022-08-16T01:31:03.724Z,97483.00
2022-08-16T01:31:13.722Z,97483.00
2022-08-16T01:31:23.713Z,97481.00
2022-08-16T01:31:33.301Z,97483.00
2022-08-16T01:31:44.293Z,97483.00
2022-08-16T01:31:55.235Z,97483.00
2022-08-16T01:32:03.290Z,97483.00
2022-08-16T01:32:15.264Z,97481.00
2022-08-16T01:32:31.491Z,97483.00
2022-08-16T01:32:37.363Z,97481.00
2022-08-16T01:32:47.240Z,97481.00
2022-08-16T01:33:14.497Z,97485.00
2022-08-16T01:33:14.652Z,97481.00
2022-08-16T01:33:19.683Z,97483.00
2022-08-16T01:33:33.407Z,97483.00
2022-08-16T01:33:39.202Z,97483.00
2022-08-16T01:33:50.263Z,97485.00
2022-08-16T01:33:59.151Z,97483.00
2022-08-16T01:34:09.162Z,97481.00
2022-08-16T01:34:23.216Z,97483.00
2022-08-16T01:34:30.223Z,97483.00
2022-08-16T01:34:47.552Z,97483.00
2022-08-16T01:34:53.606Z,97481.00
2022-08-16T01:34:59.326Z,97479.00
2022-08-16T01:35:17.637Z,97479.00
2022-08-16T01:35:19.859Z,97483.00
2022-08-16T01:35:35.355Z,97481.00
2022-08-16T01:35:42.953Z,97483.00
2022-08-16T01:35:53.380Z,97481.00
2022-08-16T01:36:09.492Z,97481.00
2022-08-16T01:36:13.694Z,97483.00
2022-08-16T01:36:23.263Z,97483.00
2022-08-16T01:36:32.923Z,97483.00
2022-08-16T01:36:44.686Z,97481.00
2022-08-16T01:36:58.154Z,97479.00
2022-08-16T01:37:06.193Z,97481.00
2022-08-16T01:37:16.324Z,97481.00
2022-08-16T01:37:26.219Z,97481.00
2022-08-16T01:37:36.278Z,97479.00
2022-08-16T01:37:46.224Z,97479.00
2022-08-16T01:37:57.764Z,97481.00
2022-08-16T01:38:05.819Z,97481.00
2022-08-16T01:38:19.443Z,97483.00
2022-08-16T01:38:28.080Z,97481.00
2022-08-16T01:38:35.807Z,97481.00
2022-08-16T01:38:49.013Z,97485.00
2022-08-16T01:38:57.157Z,97483.00
2022-08-16T01:39:08.295Z,97485.00
2022-08-16T01:39:16.505Z,97485.00
2022-08-16T01:39:27.529Z,97485.00
2022-08-16T01:39:38.500Z,97487.00
2022-08-16T01:39:48.513Z,97487.00
2022-08-16T01:39:58.548Z,97485.00
2022-08-16T01:40:07.212Z,97485.00
2022-08-16T01:40:16.495Z,97489.00
2022-08-16T01:40:28.465Z,97487.00
2022-08-16T01:40:36.806Z,97487.00
2022-08-16T01:40:46.674Z,97489.00
2022-08-16T01:40:57.585Z,97489.00
2022-08-16T01:41:08.725Z,97489.00
2022-08-16T01:41:19.280Z,97489.00
2022-08-16T01:41:29.672Z,97487.00
2022-08-16T01:41:42.228Z,97489.00
2022-08-16T01:41:48.344Z,97492.00
2022-08-16T01:42:00.265Z,97490.00
2022-08-16T01:42:12.901Z,97489.00
2022-08-16T01:42:19.272Z,97489.00
2022-08-16T01:42:30.254Z,97490.00
2022-08-16T01:42:42.461Z,97492.00
2022-08-16T01:42:52.165Z,97492.00
2022-08-16T01:42:59.316Z,97494.00
2022-08-16T01:43:10.245Z,97487.00
2022-08-16T01:43:20.247Z,97494.00
2022-08-16T01:43:28.297Z,97494.00
2022-08-16T01:43:40.261Z,97494.00
2022-08-16T01:43:53.571Z,97492.00
2022-08-16T01:44:01.358Z,97496.00
2022-08-16T01:44:09.636Z,97496.00
2022-08-16T01:44:19.638Z,97490.00
2022-08-16T01:44:37.296Z,97490.00
2022-08-16T01:44:40.746Z,97498.00
2022-08-16T01:44:49.257Z,97496.00
2022-08-16T01:45:01.218Z,97496.00
2022-08-16T01:45:09.751Z,97496.00
2022-08-16T01:45:19.744Z,97498.00
2022-08-16T01:45:40.787Z,97494.00
2022-08-16T01:45:41.771Z,97494.00
2022-08-16T01:45:57.471Z,97496.00
2022-08-16T01:46:29.231Z,97496.00
2022-08-16T01:46:29.435Z,97496.00
2022-08-16T01:46:38.385Z,97496.00
2022-08-16T01:46:40.130Z,97494.00
2022-08-16T01:46:44.217Z,97494.00
2022-08-16T01:46:53.418Z,97496.00
2022-08-16T01:47:03.428Z,97496.00
2022-08-16T01:47:15.391Z,97496.00
2022-08-16T01:47:23.429Z,97494.00
2022-08-16T01:47:33.439Z,97496.00
2022-08-16T01:47:48.998Z,97496.00
2022-08-16T01:47:54.897Z,97494.00
2022-08-16T01:48:03.418Z,97496.00
2022-08-16T01:48:19.121Z,97496.00
2022-08-16T01:48:24.408Z,97492.00
2022-08-16T01:48:33.409Z,97496.00
2022-08-16T01:48:43.458Z,97489.00
2022-08-16T01:48:55.360Z,97494.00
2022-08-16T01:49:05.358Z,97494.00
2022-08-16T01:49:15.347Z,97494.00
2022-08-16T01:49:23.401Z,97494.00
2022-08-16T01:49:45.697Z,97492.00
2022-08-16T01:50:41.760Z,97490.00
2022-08-16T01:50:42.373Z,97492.00
2022-08-16T01:50:42.575Z,97490.00
2022-08-16T01:50:42.657Z,97492.00
2022-08-16T01:50:43.165Z,97489.00
2022-08-16T01:50:44.276Z,97490.00
2022-08-16T01:51:08.833Z,97489.00
2022-08-16T01:51:09.168Z,97490.00
2022-08-16T01:51:16.857Z,97490.00
2022-08-16T01:51:21.132Z,97490.00
2022-08-16T01:51:29.630Z,97492.00
2022-08-16T01:51:39.658Z,97492.00
2022-08-16T01:51:49.662Z,97489.00
2022-08-16T01:51:59.680Z,97490.00
2022-08-16T01:52:09.729Z,97489.00
2022-08-16T01:52:28.105Z,97490.00
2022-08-16T01:52:30.522Z,97489.00
2022-08-16T01:52:41.571Z,97489.00
2022-08-16T01:52:53.124Z,97487.00
2022-08-16T01:53:03.810Z,97485.00
2022-08-16T01:53:13.100Z,97492.00
2022-08-16T01:53:21.160Z,97490.00
2022-08-16T01:53:31.168Z,97489.00
2022-08-16T01:53:43.281Z,97489.00
2022-08-16T01:53:55.319Z,97489.00
2022-08-16T01:54:02.323Z,97490.00
2022-08-16T01:54:13.478Z,97489.00
2022-08-16T01:54:30.562Z,97490.00
2022-08-16T01:54:34.740Z,97490.00
2022-08-16T01:54:42.780Z,97489.00
2022-08-16T01:54:54.761Z,97487.00
2022-08-16T01:55:02.771Z,97485.00
2022-08-16T01:55:14.473Z,97487.00
2022-08-16T01:55:24.722Z,97489.00
2022-08-16T01:55:35.834Z,97487.00
2022-08-16T01:55:42.793Z,97485.00
2022-08-16T01:55:53.859Z,97489.00
2022-08-16T01:56:03.062Z,97485.00
2022-08-16T01:56:23.414Z,97483.00
2022-08-16T01:56:24.332Z,97485.00
2022-08-16T01:56:34.885Z,97483.00
2022-08-16T01:56:42.960Z,97481.00
2022-08-16T01:56:54.901Z,97485.00
2022-08-16T01:57:04.872Z,97483.00
2022-08-16T01:57:14.882Z,97487.00
2022-08-16T01:57:26.436Z,97485.00
2022-08-16T01:57:35.595Z,97485.00
2022-08-16T01:57:53.309Z,97485.00
2022-08-16T01:57:56.226Z,97483.00
2022-08-16T01:58:06.811Z,97483.00
2022-08-16T01:58:15.572Z,97483.00
2022-08-16T01:58:27.022Z,97485.00
2022-08-16T01:58:37.355Z,97483.00
2022-08-16T01:58:48.072Z,97483.00
2022-08-16T01:58:57.503Z,97485.00
2022-08-16T01:59:07.506Z,97485.00
2022-08-16T01:59:18.560Z,97489.00
2022-08-16T01:59:29.034Z,97485.00
2022-08-16T01:59:37.843Z,97489.00
2022-08-16T01:59:49.043Z,97487.00
2022-08-16T02:00:00.605Z,97487.00